Time;durP1;ratioP1;P1;durP2;ratioP2;P2;SDS_P1;SDS_P2;PMS_P1;PMS_P2;Temp;Humidity;BMP_temperature;BMP_pressure;BME280_temperature;BME280_humidity;BME280_pressure;Samples;Min_cycle;Max_cycle;Signal;HPM_P1;HPM_P2
2023/05/05 00:00:55;;;;;;;9.57;4.13;;;13.80;98.00;;;;;;5033293;28;20454;-68
2023/05/05 00:03:23;;;;;;;7.50;3.53;;;13.70;98.00;;;;;;5033078;28;20462;-68
2023/05/05 00:05:53;;;;;;;7.67;3.57;;;13.70;98.00;;;;;;5015796;28;20453;-68
2023/05/05 00:08:20;;;;;;;6.33;3.20;;;13.70;98.00;;;;;;5032813;28;21004;-68
2023/05/05 00:10:49;;;;;;;8.80;3.20;;;13.70;98.00;;;;;;5033031;28;20512;-68
2023/05/05 00:13:16;;;;;;;5.07;3.03;;;13.60;98.00;;;;;;5032993;28;20517;-68
2023/05/05 00:15:45;;;;;;;5.97;3.33;;;13.70;98.00;;;;;;5032952;28;20793;-68
2023/05/05 00:18:17;;;;;;;7.17;3.23;;;13.70;98.00;;;;;;5033157;28;20455;-68
2023/05/05 00:20:45;;;;;;;6.97;3.23;;;13.60;98.00;;;;;;5033031;28;20461;-68
2023/05/05 00:23:14;;;;;;;5.60;3.07;;;13.70;98.00;;;;;;5032873;28;20474;-68
2023/05/05 00:25:41;;;;;;;7.37;3.50;;;13.80;98.00;;;;;;5032815;28;20454;-68
2023/05/05 00:28:09;;;;;;;6.87;3.30;;;13.80;98.00;;;;;;5032591;28;20483;-68
2023/05/05 00:30:37;;;;;;;5.83;3.17;;;13.90;98.00;;;;;;5032412;28;20972;-67
2023/05/05 00:33:04;;;;;;;6.93;3.40;;;13.90;98.00;;;;;;5032639;28;20545;-68
2023/05/05 00:35:33;;;;;;;6.20;3.10;;;13.90;98.00;;;;;;5032424;28;20465;-68
2023/05/05 00:38:00;;;;;;;7.60;3.70;;;13.80;98.00;;;;;;5014838;28;20461;-68
2023/05/05 00:40:28;;;;;;;5.83;3.23;;;13.90;98.00;;;;;;5032553;28;20454;-68
2023/05/05 00:42:55;;;;;;;8.30;3.60;;;13.90;98.00;;;;;;5032376;28;20960;-68
2023/05/05 00:45:25;;;;;;;5.60;3.23;;;13.90;98.00;;;;;;5014839;28;20971;-68
2023/05/05 00:47:54;;;;;;;5.53;3.10;;;14.00;98.00;;;;;;5014383;28;20528;-68
2023/05/05 00:50:23;;;;;;;7.40;3.90;;;14.10;98.00;;;;;;5032386;28;20454;-68
2023/05/05 00:52:54;;;;;;;7.10;3.17;;;14.00;98.00;;;;;;5032335;28;20552;-68
2023/05/05 00:55:21;;;;;;;5.97;3.20;;;13.90;98.00;;;;;;5032230;28;20463;-68
2023/05/05 00:57:49;;;;;;;5.30;2.80;;;14.10;98.00;;;;;;5031967;28;20498;-68
2023/05/05 01:00:16;;;;;;;7.53;3.50;;;14.10;98.00;;;;;;5031982;28;20794;-68
2023/05/05 01:02:44;;;;;;;5.57;3.50;;;14.10;98.00;;;;;;5031990;28;20490;-68
2023/05/05 01:05:13;;;;;;;6.03;3.07;;;14.10;98.00;;;;;;5031494;28;20466;-68
2023/05/05 01:07:50;;;;;;;4.83;2.90;;;13.90;98.00;;;;;;5032105;28;20485;-68
2023/05/05 01:10:30;;;;;;;5.00;2.83;;;14.10;98.00;;;;;;5032072;28;20454;-67
2023/05/05 01:13:05;;;;;;;6.57;3.20;;;14.10;98.00;;;;;;5032156;28;20461;-68
2023/05/05 01:15:36;;;;;;;7.10;3.30;;;13.90;98.00;;;;;;5031852;28;20450;-68
2023/05/05 01:18:13;;;;;;;7.10;3.70;;;14.00;98.00;;;;;;5031716;28;20455;-68
2023/05/05 01:20:49;;;;;;;6.00;3.20;;;13.90;98.00;;;;;;5031653;28;20466;-68
2023/05/05 01:23:24;;;;;;;5.80;3.10;;;14.00;98.00;;;;;;5031619;28;20462;-68
2023/05/05 01:26:12;;;;;;;6.53;3.67;;;14.10;98.00;;;;;;5031620;28;20462;-68
2023/05/05 01:29:00;;;;;;;6.07;3.30;;;14.10;98.00;;;;;;5031464;28;20493;-68
2023/05/05 01:31:50;;;;;;;14.20;3.57;;;14.20;98.00;;;;;;5014107;28;20451;-68
2023/05/05 01:34:24;;;;;;;6.27;3.20;;;14.20;98.00;;;;;;5031783;28;20925;-68
2023/05/05 01:36:58;;;;;;;6.80;3.10;;;14.10;98.00;;;;;;5031673;28;21038;-68
2023/05/05 01:39:31;;;;;;;6.30;3.83;;;14.00;98.00;;;;;;5031354;28;20485;-68
2023/05/05 01:42:03;;;;;;;6.33;3.60;;;14.10;98.00;;;;;;5031600;28;20956;-67
2023/05/05 01:44:33;;;;;;;7.70;3.20;;;14.10;98.00;;;;;;5031357;28;20477;-68
2023/05/05 01:47:03;;;;;;;4.90;2.90;;;14.30;98.00;;;;;;5031567;28;20461;-68
2023/05/05 01:49:31;;;;;;;6.03;2.90;;;14.30;98.00;;;;;;5013658;28;20517;-67
2023/05/05 01:51:59;;;;;;;4.57;2.70;;;14.20;98.00;;;;;;4997545;28;20469;-67
2023/05/05 01:54:27;;;;;;;6.43;3.37;;;14.20;98.00;;;;;;5013783;28;20470;-68
2023/05/05 01:56:57;;;;;;;4.90;2.83;;;14.10;98.00;;;;;;5030980;28;20872;-68
2023/05/05 01:59:26;;;;;;;8.63;3.50;;;14.00;98.00;;;;;;5031202;28;20458;-68
2023/05/05 02:01:54;;;;;;;6.13;3.50;;;14.00;98.00;;;;;;5031036;28;20462;-68
2023/05/05 02:04:31;;;;;;;6.70;3.10;;;14.00;98.00;;;;;;5013625;28;20535;-68
2023/05/05 02:07:00;;;;;;;3.87;2.70;;;13.80;98.00;;;;;;5031375;28;20462;-68
2023/05/05 02:09:29;;;;;;;8.37;3.90;;;13.90;98.00;;;;;;5031138;28;20896;-67
2023/05/05 02:11:59;;;;;;;6.60;3.57;;;13.90;98.00;;;;;;5031095;28;20462;-67
2023/05/05 02:14:29;;;;;;;5.83;3.33;;;13.90;98.00;;;;;;5031190;28;20462;-68
2023/05/05 02:16:58;;;;;;;6.00;3.00;;;13.80;98.00;;;;;;5014096;28;20453;-67
2023/05/05 02:19:31;;;;;;;7.03;3.80;;;13.70;98.00;;;;;;5017363;28;20991;-67
2023/05/05 02:22:00;;;;;;;6.57;3.20;;;13.40;98.00;;;;;;5035144;28;20458;-67
2023/05/05 02:24:27;;;;;;;8.23;3.30;;;13.50;98.00;;;;;;5034913;28;20975;-67
2023/05/05 02:26:57;;;;;;;6.87;3.10;;;13.50;98.00;;;;;;5035006;28;20465;-67
2023/05/05 02:29:31;;;;;;;5.60;3.10;;;13.30;98.00;;;;;;5034752;28;20485;-68
2023/05/05 02:32:06;;;;;;;6.13;3.17;;;13.20;98.00;;;;;;5034904;28;20476;-67
2023/05/05 02:34:36;;;;;;;5.17;2.90;;;13.10;98.00;;;;;;5034695;28;20557;-68
2023/05/05 02:37:07;;;;;;;8.27;3.47;;;13.10;98.00;;;;;;5033977;28;20466;-67
2023/05/05 02:39:39;;;;;;;7.87;3.30;;;13.20;98.00;;;;;;5034683;28;20458;-67
2023/05/05 02:42:09;;;;;;;6.20;2.93;;;13.30;98.00;;;;;;5017776;28;20509;-67
2023/05/05 02:44:39;;;;;;;11.97;3.30;;;13.30;98.00;;;;;;5034443;28;20983;-68
2023/05/05 02:47:07;;;;;;;7.30;3.40;;;13.00;98.00;;;;;;5017391;28;20970;-68
2023/05/05 02:49:38;;;;;;;6.60;3.23;;;13.00;98.00;;;;;;5034394;28;20888;-67
2023/05/05 02:52:05;;;;;;;6.40;2.93;;;12.90;98.00;;;;;;5017436;28;20490;-67
2023/05/05 02:54:33;;;;;;;5.50;3.20;;;12.80;98.00;;;;;;5034333;28;20457;-67
2023/05/05 02:57:01;;;;;;;7.33;3.57;;;12.60;98.00;;;;;;5034266;28;21065;-68
2023/05/05 02:59:36;;;;;;;7.30;3.40;;;12.50;98.00;;;;;;5034231;28;20490;-67
2023/05/05 03:02:13;;;;;;;7.70;3.60;;;12.40;98.00;;;;;;5034822;28;20457;-68
2023/05/05 03:04:45;;;;;;;5.00;3.10;;;12.40;98.00;;;;;;5016682;28;20466;-67
2023/05/05 03:07:20;;;;;;;7.67;3.63;;;12.40;98.00;;;;;;5034161;28;20471;-68
2023/05/05 03:09:57;;;;;;;6.67;3.17;;;12.30;98.00;;;;;;5016361;28;20520;-67
2023/05/05 03:12:46;;;;;;;6.17;2.97;;;12.30;98.00;;;;;;5034241;28;20464;-67
2023/05/05 03:15:13;;;;;;;7.67;3.90;;;12.50;98.00;;;;;;5033823;28;20466;-67
2023/05/05 03:17:43;;;;;;;5.53;3.13;;;12.50;98.00;;;;;;5034031;28;20472;-67
2023/05/05 03:20:14;;;;;;;6.20;3.17;;;12.40;98.00;;;;;;5033849;28;20456;-67
2023/05/05 03:22:41;;;;;;;5.47;3.17;;;12.30;98.00;;;;;;5034107;28;20473;-67
2023/05/05 03:25:09;;;;;;;8.50;3.80;;;12.30;98.00;;;;;;5033982;28;20466;-67
2023/05/05 03:27:36;;;;;;;6.80;3.30;;;12.40;98.00;;;;;;5033730;28;20959;-67
2023/05/05 03:30:05;;;;;;;8.27;3.20;;;12.30;98.00;;;;;;5033222;28;20481;-67
2023/05/05 03:32:32;;;;;;;7.93;3.37;;;12.30;98.00;;;;;;5016155;28;20885;-67
2023/05/05 03:34:59;;;;;;;5.37;3.17;;;12.20;98.00;;;;;;5033587;28;20450;-67
2023/05/05 03:37:28;;;;;;;4.93;2.90;;;12.20;98.00;;;;;;5033645;28;20462;-67
2023/05/05 03:39:55;;;;;;;6.30;3.13;;;12.20;98.00;;;;;;5033539;28;20466;-67
2023/05/05 03:42:22;;;;;;;8.20;3.20;;;12.40;98.00;;;;;;5033695;28;20821;-67
2023/05/05 03:44:52;;;;;;;5.77;3.43;;;12.40;98.00;;;;;;4999575;28;20462;-67
2023/05/05 03:47:19;;;;;;;5.10;3.03;;;12.30;98.00;;;;;;5015872;28;20493;-67
2023/05/05 03:49:46;;;;;;;6.90;3.37;;;12.30;98.00;;;;;;5033300;28;20484;-67
2023/05/05 03:52:13;;;;;;;6.90;3.07;;;12.40;98.00;;;;;;5033587;28;20461;-67
2023/05/05 03:54:42;;;;;;;6.17;3.30;;;12.30;98.00;;;;;;5015642;28;20494;-67
2023/05/05 03:57:09;;;;;;;7.60;3.13;;;12.30;98.00;;;;;;5033459;28;20471;-68
2023/05/05 03:59:36;;;;;;;7.80;3.43;;;12.30;98.00;;;;;;5015402;28;20454;-67
2023/05/05 04:02:03;;;;;;;6.07;3.03;;;12.30;98.00;;;;;;5033346;28;20458;-67
2023/05/05 04:04:30;;;;;;;7.23;4.03;;;12.40;98.00;;;;;;5033252;28;20450;-68
2023/05/05 04:06:57;;;;;;;4.70;2.73;;;12.50;98.00;;;;;;5033413;28;20457;-67
2023/05/05 04:09:24;;;;;;;4.50;2.80;;;12.50;98.00;;;;;;5032846;28;20849;-67
2023/05/05 04:11:52;;;;;;;6.50;2.70;;;12.60;98.00;;;;;;5033031;28;20458;-67
2023/05/05 04:14:21;;;;;;;6.60;2.60;;;12.80;98.00;;;;;;5032971;28;20458;-67
2023/05/05 04:16:48;;;;;;;5.37;3.10;;;12.70;98.00;;;;;;5032920;28;20830;-67
2023/05/05 04:19:16;;;;;;;6.73;3.00;;;12.80;98.00;;;;;;5032928;28;20840;-67
2023/05/05 04:21:43;;;;;;;7.60;3.60;;;13.00;98.00;;;;;;5015265;28;20516;-68
2023/05/05 04:24:10;;;;;;;5.63;3.10;;;13.20;98.00;;;;;;5032695;28;20454;-67
2023/05/05 04:26:37;;;;;;;6.53;3.40;;;13.20;98.00;;;;;;5032598;28;20458;-67
2023/05/05 04:29:06;;;;;;;4.97;2.93;;;13.20;98.00;;;;;;5032658;28;20889;-67
2023/05/05 04:31:33;;;;;;;7.00;3.27;;;13.10;98.00;;;;;;5032735;28;20450;-67
2023/05/05 04:34:00;;;;;;;4.87;3.00;;;13.20;98.00;;;;;;5014870;28;20992;-68
2023/05/05 04:36:28;;;;;;;6.60;3.37;;;13.20;98.00;;;;;;5032656;28;20489;-67
2023/05/05 04:38:55;;;;;;;5.00;2.90;;;13.20;98.00;;;;;;5032421;28;21081;-67
2023/05/05 04:41:22;;;;;;;5.23;3.10;;;13.40;98.00;;;;;;5014051;28;20521;-67
2023/05/05 04:43:49;;;;;;;4.30;3.10;;;13.30;98.00;;;;;;5032488;28;20952;-67
2023/05/05 04:46:18;;;;;;;8.00;3.70;;;13.30;98.00;;;;;;5015062;28;20461;-67
2023/05/05 04:48:45;;;;;;;7.77;3.47;;;13.30;98.00;;;;;;5032372;28;20457;-67
2023/05/05 04:51:12;;;;;;;5.10;2.90;;;13.50;98.00;;;;;;5014834;28;21011;-67
2023/05/05 04:53:40;;;;;;;6.73;3.90;;;13.50;98.00;;;;;;5032501;28;20520;-67
2023/05/05 04:56:07;;;;;;;7.47;3.73;;;13.50;98.00;;;;;;5014318;28;20989;-67
2023/05/05 04:58:37;;;;;;;5.07;3.17;;;13.60;98.00;;;;;;5032170;28;20463;-67
2023/05/05 05:01:04;;;;;;;7.10;3.13;;;13.60;98.00;;;;;;5032252;28;20488;-67
2023/05/05 05:03:33;;;;;;;8.23;3.53;;;13.70;98.00;;;;;;5032095;28;20462;-67
2023/05/05 05:06:00;;;;;;;8.40;3.50;;;13.90;98.00;;;;;;5031942;28;20459;-67
2023/05/05 05:08:27;;;;;;;5.23;3.23;;;14.00;98.00;;;;;;5032100;28;20529;-67
2023/05/05 05:10:54;;;;;;;6.07;3.20;;;14.10;98.00;;;;;;5032429;28;20486;-67
2023/05/05 05:13:21;;;;;;;9.70;2.90;;;14.20;98.00;;;;;;5031763;28;20455;-67
2023/05/05 05:15:49;;;;;;;6.07;3.30;;;14.10;98.00;;;;;;5031921;28;20458;-67
2023/05/05 05:18:16;;;;;;;8.80;3.77;;;14.20;98.00;;;;;;5014457;28;20988;-67
2023/05/05 05:20:44;;;;;;;7.80;3.67;;;14.20;98.00;;;;;;5031678;28;20477;-67
2023/05/05 05:23:14;;;;;;;5.40;3.20;;;14.20;98.00;;;;;;5031837;28;20525;-67
2023/05/05 05:25:43;;;;;;;4.67;2.77;;;14.10;98.00;;;;;;5031424;28;20458;-67
2023/05/05 05:28:10;;;;;;;7.73;3.10;;;13.90;98.00;;;;;;5032031;28;20451;-67
2023/05/05 05:30:37;;;;;;;5.77;3.30;;;14.00;98.00;;;;;;5014156;28;20518;-67
2023/05/05 05:33:04;;;;;;;6.43;3.93;;;14.20;98.00;;;;;;5014338;28;20983;-67
2023/05/05 05:35:32;;;;;;;7.17;3.67;;;14.10;98.00;;;;;;5031372;28;20458;-67
2023/05/05 05:38:00;;;;;;;6.80;3.37;;;13.90;98.00;;;;;;5031462;28;20459;-67
2023/05/05 05:40:27;;;;;;;8.13;3.17;;;13.80;98.00;;;;;;5031987;28;20453;-67
2023/05/05 05:42:54;;;;;;;5.90;3.37;;;13.90;98.00;;;;;;5032512;28;20462;-67
2023/05/05 05:45:22;;;;;;;8.83;3.50;;;14.00;98.00;;;;;;5014220;28;20450;-67
2023/05/05 05:47:49;;;;;;;6.30;3.70;;;14.10;98.00;;;;;;5031888;28;20980;-67
2023/05/05 05:50:16;;;;;;;7.60;3.90;;;14.10;98.00;;;;;;5032421;28;20490;-67
2023/05/05 05:52:43;;;;;;;10.23;4.17;;;14.20;98.00;;;;;;5031331;28;20486;-67
2023/05/05 05:55:11;;;;;;;9.00;3.80;;;14.30;98.00;;;;;;5031259;28;20462;-67
2023/05/05 05:57:39;;;;;;;8.67;3.70;;;14.40;98.00;;;;;;5031181;28;20470;-67
2023/05/05 06:00:08;;;;;;;10.73;4.07;;;14.40;98.00;;;;;;5031367;28;20462;-67
2023/05/05 06:02:35;;;;;;;8.00;3.90;;;14.50;98.00;;;;;;5031338;28;20974;-64
2023/05/05 06:05:02;;;;;;;4.27;2.97;;;14.60;98.00;;;;;;5013513;28;20459;-64
2023/05/05 06:07:29;;;;;;;7.90;4.20;;;14.60;98.00;;;;;;5031389;28;20471;-64
2023/05/05 06:09:56;;;;;;;9.10;4.00;;;14.80;98.00;;;;;;5013590;28;20544;-64
2023/05/05 06:12:26;;;;;;;5.23;3.40;;;14.80;98.00;;;;;;5031609;28;20454;-64
2023/05/05 06:14:53;;;;;;;9.07;3.63;;;14.90;98.00;;;;;;5031119;28;20470;-64
2023/05/05 06:17:21;;;;;;;7.67;3.53;;;15.20;98.00;;;;;;5031218;28;20455;-64
2023/05/05 06:19:48;;;;;;;7.57;3.37;;;15.40;98.00;;;;;;5013624;28;20477;-64
2023/05/05 06:22:15;;;;;;;6.30;3.60;;;15.50;98.00;;;;;;5031162;28;20914;-64
2023/05/05 06:24:42;;;;;;;9.23;4.17;;;15.60;98.00;;;;;;5030904;28;20458;-65
2023/05/05 06:27:09;;;;;;;7.87;3.60;;;15.70;98.00;;;;;;5030918;28;20465;-65
2023/05/05 06:29:37;;;;;;;6.63;3.23;;;15.70;98.00;;;;;;5030695;28;20627;-65
2023/05/05 06:32:07;;;;;;;7.33;3.60;;;15.90;98.00;;;;;;5030956;28;20451;-65
2023/05/05 06:34:34;;;;;;;9.87;4.13;;;15.90;98.00;;;;;;5030935;28;20823;-65
2023/05/05 06:37:01;;;;;;;7.47;3.63;;;16.20;98.00;;;;;;5030801;28;20454;-65
2023/05/05 06:39:28;;;;;;;6.80;3.50;;;16.40;98.00;;;;;;5030939;28;20462;-65
2023/05/05 06:41:55;;;;;;;8.80;3.70;;;16.60;98.00;;;;;;5030750;28;20828;-65
2023/05/05 06:44:22;;;;;;;7.40;4.00;;;16.70;98.00;;;;;;5030886;28;20465;-65
2023/05/05 06:46:51;;;;;;;9.03;4.47;;;17.00;98.00;;;;;;5030777;28;20462;-65
2023/05/05 06:49:18;;;;;;;7.40;3.50;;;17.20;98.00;;;;;;5030658;28;20457;-66
2023/05/05 06:51:45;;;;;;;7.00;3.70;;;17.40;98.00;;;;;;5030864;28;20470;-65
2023/05/05 06:54:12;;;;;;;7.23;3.50;;;17.60;98.00;;;;;;5030693;28;20473;-65
2023/05/05 06:56:48;;;;;;;9.67;4.00;;;18.00;98.00;;;;;;5012749;28;20957;-65
2023/05/05 06:59:15;;;;;;;6.50;3.27;;;18.20;98.00;;;;;;5030679;28;20521;-65
2023/05/05 07:01:42;;;;;;;6.20;3.93;;;18.40;98.00;;;;;;5030663;28;20450;-65
2023/05/05 07:04:11;;;;;;;8.83;4.20;;;18.40;98.00;;;;;;5032918;28;20858;-66
2023/05/05 07:06:38;;;;;;;8.17;4.10;;;18.40;98.00;;;;;;5034399;28;20868;-65
2023/05/05 07:09:05;;;;;;;8.20;3.80;;;18.40;98.00;;;;;;5034282;28;20462;-65
2023/05/05 07:11:32;;;;;;;6.50;3.73;;;18.40;98.00;;;;;;5034214;28;20548;-65
2023/05/05 07:14:02;;;;;;;6.60;3.83;;;18.40;98.00;;;;;;5034223;28;20477;-65
2023/05/05 07:16:29;;;;;;;5.97;3.70;;;18.30;98.00;;;;;;5034197;28;20458;-65
2023/05/05 07:18:56;;;;;;;9.17;3.97;;;18.30;98.00;;;;;;5033910;28;20477;-65
2023/05/05 07:21:25;;;;;;;6.10;3.60;;;18.40;98.00;;;;;;5034277;28;20881;-65
2023/05/05 07:23:52;;;;;;;6.93;3.77;;;18.50;98.00;;;;;;5033831;28;20529;-65
2023/05/05 07:26:19;;;;;;;7.87;4.00;;;18.60;98.00;;;;;;5034111;28;20466;-65
2023/05/05 07:28:46;;;;;;;7.03;4.10;;;18.60;98.00;;;;;;5034058;28;20458;-65
2023/05/05 07:31:14;;;;;;;5.60;3.17;;;18.70;98.00;;;;;;5033711;28;20882;-65
2023/05/05 07:33:41;;;;;;;6.20;3.70;;;18.80;98.00;;;;;;5016097;28;20446;-65
2023/05/05 07:36:08;;;;;;;6.93;3.73;;;19.00;98.00;;;;;;5026872;28;20465;-65
2023/05/05 07:38:37;;;;;;;6.10;3.70;;;19.40;98.00;;;;;;5019613;28;20828;-65
2023/05/05 07:41:05;;;;;;;6.83;3.23;;;19.70;98.00;;;;;;5053461;28;20449;-65
2023/05/05 07:43:32;;;;;;;7.53;3.50;;;19.80;98.00;;;;;;5035265;28;20545;-65
2023/05/05 07:45:59;;;;;;;7.30;4.00;;;20.00;98.00;;;;;;5053240;28;20464;-65
2023/05/05 07:48:27;;;;;;;5.50;3.40;;;20.30;98.00;;;;;;5053200;28;20465;-65
2023/05/05 07:50:54;;;;;;;6.90;3.40;;;20.40;98.00;;;;;;5052946;28;20489;-65
2023/05/05 07:53:22;;;;;;;5.60;3.40;;;20.40;98.00;;;;;;5035628;28;20478;-63
2023/05/05 07:55:50;;;;;;;5.30;3.00;;;20.40;98.00;;;;;;5053126;28;20469;-62
2023/05/05 07:58:17;;;;;;;4.90;3.20;;;20.40;98.00;;;;;;5050437;28;20470;-65
2023/05/05 08:00:44;;;;;;;7.60;3.13;;;20.70;98.00;;;;;;5033156;28;20463;-65
2023/05/05 08:03:12;;;;;;;4.70;3.10;;;20.90;98.00;;;;;;5033344;28;20705;-65
2023/05/05 08:05:39;;;;;;;6.50;3.23;;;21.00;98.00;;;;;;5032962;28;20451;-65
2023/05/05 08:08:06;;;;;;;5.33;3.03;;;21.10;98.00;;;;;;5033117;28;20489;-66
2023/05/05 08:10:34;;;;;;;5.03;3.03;;;21.10;98.00;;;;;;5032800;28;20486;-66
2023/05/05 08:13:02;;;;;;;7.83;3.70;;;21.10;98.00;;;;;;5032941;28;20462;-66
2023/05/05 08:15:29;;;;;;;4.83;2.87;;;21.10;98.00;;;;;;5032757;28;20789;-65
2023/05/05 08:17:56;;;;;;;4.40;2.70;;;21.10;98.00;;;;;;5032778;28;20459;-63
2023/05/05 08:20:28;;;;;;;5.90;2.77;;;21.20;98.00;;;;;;5032806;28;20462;-63
2023/05/05 08:22:55;;;;;;;6.70;3.20;;;21.20;98.00;;;;;;5015220;28;20898;-63
2023/05/05 08:25:25;;;;;;;4.57;2.87;;;21.20;98.00;;;;;;5036880;28;20537;-62
2023/05/05 08:27:53;;;;;;;10.30;3.00;;;21.20;98.00;;;;;;5034765;28;20496;-63
2023/05/05 08:30:25;;;;;;;5.40;3.13;;;21.20;98.00;;;;;;5034840;28;20489;-62
2023/05/05 08:32:52;;;;;;;7.30;3.20;;;21.20;98.00;;;;;;5034832;28;20513;-62
2023/05/05 08:35:19;;;;;;;7.67;3.50;;;21.20;98.00;;;;;;5014661;28;20469;-61
2023/05/05 08:37:47;;;;;;;4.70;2.90;;;21.10;98.00;;;;;;5032375;28;20903;-62
2023/05/05 08:40:15;;;;;;;5.03;2.80;;;21.10;98.00;;;;;;5014996;28;20467;-62
2023/05/05 08:42:45;;;;;;;3.70;2.60;;;21.10;98.00;;;;;;5031823;28;20499;-62
2023/05/05 08:45:12;;;;;;;5.33;3.03;;;21.10;98.00;;;;;;5028932;28;20463;-62
2023/05/05 08:47:41;;;;;;;7.40;2.93;;;21.00;98.00;;;;;;5029063;28;20981;-62
2023/05/05 08:50:10;;;;;;;5.80;2.90;;;20.90;98.00;;;;;;5031886;28;20482;-62
2023/05/05 08:52:40;;;;;;;10.40;2.70;;;20.80;98.00;;;;;;5031826;28;20461;-59
2023/05/05 08:55:15;;;;;;;5.20;2.60;;;20.70;98.00;;;;;;4998115;28;20485;-53
2023/05/05 08:57:50;;;;;;;5.20;3.10;;;20.60;98.00;;;;;;5031616;28;21022;-56
2023/05/05 09:00:19;;;;;;;4.80;2.80;;;20.40;98.00;;;;;;5031885;28;20458;-57
2023/05/05 09:02:48;;;;;;;4.00;2.90;;;20.40;98.00;;;;;;5029925;28;20450;-56
2023/05/05 09:05:16;;;;;;;5.23;3.00;;;20.20;98.00;;;;;;5031831;28;20451;-56
2023/05/05 09:07:45;;;;;;;4.00;2.80;;;20.20;98.00;;;;;;5031778;28;20457;-57
2023/05/05 09:10:12;;;;;;;3.77;2.70;;;20.10;98.00;;;;;;5030983;28;20836;-57
2023/05/05 09:12:40;;;;;;;5.80;2.80;;;20.00;98.00;;;;;;5031813;28;20844;-59
2023/05/05 09:15:10;;;;;;;5.33;2.83;;;19.80;98.00;;;;;;5031762;28;20439;-57
2023/05/05 09:17:38;;;;;;;5.67;3.20;;;19.70;98.00;;;;;;5031688;28;20481;-56
2023/05/05 09:20:09;;;;;;;5.50;2.97;;;19.70;98.00;;;;;;5031549;28;20451;-58
2023/05/05 09:22:42;;;;;;;4.70;3.13;;;19.70;98.00;;;;;;5031481;28;20458;-58
2023/05/05 09:25:11;;;;;;;5.80;3.00;;;19.70;98.00;;;;;;5031072;28;20945;-57
2023/05/05 09:27:40;;;;;;;4.30;2.80;;;19.80;98.00;;;;;;5031000;28;20485;-58
2023/05/05 09:30:09;;;;;;;6.07;2.87;;;19.80;98.00;;;;;;5031207;28;20474;-56
2023/05/05 09:32:47;;;;;;;4.87;2.73;;;19.80;98.00;;;;;;5031452;28;20473;-60
2023/05/05 09:35:16;;;;;;;4.87;2.60;;;19.80;98.00;;;;;;5031368;28;20516;-59
2023/05/05 09:37:44;;;;;;;4.43;2.63;;;19.90;98.00;;;;;;5031257;28;20458;-60
2023/05/05 09:40:13;;;;;;;5.07;2.97;;;19.90;98.00;;;;;;5031315;28;20498;-61
2023/05/05 09:42:41;;;;;;;4.67;2.67;;;20.00;98.00;;;;;;5030809;28;20454;-58
2023/05/05 09:45:26;;;;;;;3.70;2.40;;;20.00;98.00;;;;;;5031004;28;20878;-59
2023/05/05 09:47:53;;;;;;;6.03;2.63;;;20.00;98.00;;;;;;5031316;28;20501;-58
2023/05/05 09:50:22;;;;;;;3.63;2.53;;;20.00;98.00;;;;;;5031230;28;20454;-57
2023/05/05 09:52:56;;;;;;;5.37;2.80;;;20.20;98.00;;;;;;5030111;28;20470;-58
2023/05/05 09:55:24;;;;;;;3.40;2.10;;;20.30;98.00;;;;;;5031656;28;20473;-58
2023/05/05 09:57:51;;;;;;;5.20;2.63;;;20.30;98.00;;;;;;5034572;28;20605;-57
2023/05/05 10:00:19;;;;;;;7.73;3.87;;;20.50;98.00;;;;;;5030728;28;20450;-54
2023/05/05 10:02:46;;;;;;;5.20;2.90;;;20.70;98.00;;;;;;5030978;28;20470;-58
2023/05/05 10:05:15;;;;;;;3.13;2.53;;;20.90;98.00;;;;;;5030565;28;20458;-57
2023/05/05 10:07:46;;;;;;;3.30;2.70;;;21.00;98.00;;;;;;5030387;28;20465;-55
2023/05/05 10:10:15;;;;;;;5.13;2.80;;;21.10;98.00;;;;;;5030552;28;21014;-57
2023/05/05 10:12:42;;;;;;;5.23;3.03;;;21.20;98.00;;;;;;5030371;28;20461;-58
2023/05/05 10:15:11;;;;;;;4.40;2.37;;;21.40;98.00;;;;;;5030859;28;20463;-58
2023/05/05 10:17:45;;;;;;;4.67;2.40;;;21.50;98.00;;;;;;5031017;28;20447;-58
2023/05/05 10:20:14;;;;;;;5.00;2.63;;;21.50;98.00;;;;;;5031096;28;20461;-58
2023/05/05 10:22:50;;;;;;;3.90;2.60;;;21.60;98.00;;;;;;5031059;28;20450;-59
2023/05/05 10:25:25;;;;;;;4.10;2.97;;;21.70;98.00;;;;;;5030897;28;20561;-57
2023/05/05 10:27:55;;;;;;;7.53;2.90;;;21.90;98.00;;;;;;5030966;28;20837;-58
2023/05/05 10:30:24;;;;;;;4.80;2.70;;;22.20;98.00;;;;;;5030477;28;20466;-58
2023/05/05 10:32:57;;;;;;;3.73;2.60;;;22.40;98.00;;;;;;5030536;28;20463;-60
2023/05/05 10:35:26;;;;;;;3.63;2.60;;;22.60;98.00;;;;;;5030170;28;20458;-57
2023/05/05 10:37:56;;;;;;;4.10;2.50;;;22.60;98.00;;;;;;5030814;28;20462;-58
2023/05/05 10:40:24;;;;;;;4.90;2.80;;;22.80;98.00;;;;;;5035212;28;20859;-60
2023/05/05 10:42:52;;;;;;;4.40;2.63;;;;;;;;;;5035461;28;20466;-56
2023/05/05 10:45:20;;;;;;;4.30;2.90;;;23.50;98.00;;;;;;5035284;28;20474;-58
2023/05/05 10:47:49;;;;;;;3.47;2.80;;;23.60;98.00;;;;;;5035250;28;20459;-58
2023/05/05 10:50:21;;;;;;;6.13;2.93;;;23.90;98.00;;;;;;5035168;28;20461;-59
2023/05/05 10:53:03;;;;;;;3.97;2.73;;;24.10;98.00;;;;;;5035380;28;20882;-60
2023/05/05 10:55:39;;;;;;;3.60;2.33;;;24.10;98.00;;;;;;5034840;28;20465;-57
2023/05/05 10:58:06;;;;;;;4.50;2.63;;;23.90;98.00;;;;;;5034255;28;20461;-58
2023/05/05 11:00:50;;;;;;;4.07;2.30;;;23.70;98.00;;;;;;5034093;28;20458;-59
2023/05/05 11:03:22;;;;;;;3.33;2.70;;;23.60;98.00;;;;;;5034139;28;20538;-58
2023/05/05 11:06:12;;;;;;;3.60;2.53;;;23.50;98.00;;;;;;5034087;28;21008;-57
2023/05/05 11:08:42;;;;;;;4.50;2.77;;;23.40;98.00;;;;;;5034272;28;20991;-58
2023/05/05 11:11:11;;;;;;;3.57;2.33;;;23.20;98.00;;;;;;5034320;28;20555;-56
2023/05/05 11:13:40;;;;;;;3.20;2.27;;;23.10;98.00;;;;;;5034089;28;20466;-57
2023/05/05 11:16:40;;;;;;;3.90;2.37;;;23.10;98.00;;;;;;5034042;28;20462;-58
2023/05/05 11:19:40;;;;;;;3.43;2.50;;;23.00;98.00;;;;;;5034045;28;20463;-59
2023/05/05 11:22:07;;;;;;;4.00;2.47;;;22.90;98.00;;;;;;5034369;28;20528;-58
2023/05/05 11:24:38;;;;;;;3.90;2.80;;;22.80;98.00;;;;;;5033970;28;20761;-57
2023/05/05 11:27:06;;;;;;;3.47;2.43;;;22.60;98.00;;;;;;5033820;28;20469;-59
2023/05/05 11:30:04;;;;;;;3.47;2.50;;;22.70;98.00;;;;;;5033729;28;20461;-58
2023/05/05 11:32:32;;;;;;;2.80;2.20;;;22.80;98.00;;;;;;5033735;28;20490;-58
2023/05/05 11:35:00;;;;;;;3.03;2.40;;;22.80;98.00;;;;;;5033622;28;20461;-58
2023/05/05 11:37:28;;;;;;;3.93;2.57;;;22.80;98.00;;;;;;5033786;28;20462;-58
2023/05/05 11:40:03;;;;;;;3.30;2.47;;;22.80;98.00;;;;;;5033590;28;20454;-57
2023/05/05 11:42:30;;;;;;;3.40;2.60;;;22.80;98.00;;;;;;5033757;28;20462;-57
2023/05/05 11:44:58;;;;;;;4.10;2.63;;;22.80;98.00;;;;;;5033602;28;20463;-59
2023/05/05 11:47:30;;;;;;;4.53;2.80;;;22.90;98.00;;;;;;5033825;28;20470;-58
2023/05/05 11:49:57;;;;;;;4.40;2.83;;;22.90;98.00;;;;;;5033234;28;20455;-59
2023/05/05 11:52:27;;;;;;;3.90;2.50;;;22.90;98.00;;;;;;5033453;28;20491;-59
2023/05/05 11:55:02;;;;;;;4.77;2.60;;;22.90;98.00;;;;;;5033313;28;20451;-59
2023/05/05 11:57:30;;;;;;;3.77;2.50;;;23.00;98.00;;;;;;5033442;28;20460;-57
2023/05/05 12:00:00;;;;;;;5.50;2.70;;;23.00;98.00;;;;;;5016142;28;20461;-59
2023/05/05 12:02:28;;;;;;;4.13;2.60;;;23.10;98.00;;;;;;5034001;28;20800;-58
2023/05/05 12:04:56;;;;;;;3.80;2.77;;;23.20;98.00;;;;;;5033552;28;20544;-58
2023/05/05 12:07:25;;;;;;;3.37;2.50;;;23.20;98.00;;;;;;5033546;28;20454;-59
2023/05/05 12:09:53;;;;;;;4.17;2.80;;;23.30;98.00;;;;;;5033660;28;20534;-60
2023/05/05 12:12:34;;;;;;;5.03;2.83;;;23.30;98.00;;;;;;5033658;28;20489;-58
2023/05/05 12:15:01;;;;;;;4.20;3.07;;;23.20;98.00;;;;;;5033794;28;20949;-57
2023/05/05 12:17:37;;;;;;;4.30;3.00;;;23.30;98.00;;;;;;5033692;28;20455;-58
2023/05/05 12:20:06;;;;;;;4.30;2.90;;;23.40;98.00;;;;;;5033661;28;20550;-59
2023/05/05 12:22:33;;;;;;;4.83;3.00;;;23.60;98.00;;;;;;5033699;28;20512;-59
2023/05/05 12:25:02;;;;;;;3.63;2.93;;;23.60;98.00;;;;;;5033464;28;20813;-60
2023/05/05 12:27:31;;;;;;;6.20;3.00;;;23.80;98.00;;;;;;5033687;28;20937;-59
2023/05/05 12:30:11;;;;;;;8.80;2.97;;;24.00;98.00;;;;;;5033300;28;20945;-59
2023/05/05 12:32:38;;;;;;;4.37;2.70;;;24.20;98.00;;;;;;5033362;28;20486;-58
2023/05/05 12:35:07;;;;;;;4.07;2.17;;;24.30;98.00;;;;;;5033058;28;20489;-59
2023/05/05 12:37:35;;;;;;;3.40;2.40;;;24.70;98.00;;;;;;5032762;28;20485;-58
2023/05/05 12:40:04;;;;;;;3.00;2.60;;;24.90;97.30;;;;;;5032270;28;20868;-58
2023/05/05 12:42:38;;;;;;;3.20;2.57;;;25.10;98.00;;;;;;5032464;28;20519;-57
2023/05/05 12:45:07;;;;;;;5.97;3.23;;;25.20;97.50;;;;;;5032591;28;20460;-59
2023/05/05 12:47:35;;;;;;;4.20;3.27;;;25.10;96.30;;;;;;5032374;28;20450;-59
2023/05/05 12:50:02;;;;;;;3.43;2.60;;;24.90;97.30;;;;;;5032384;28;20516;-58
2023/05/05 12:52:43;;;;;;;4.03;2.80;;;24.70;97.10;;;;;;5032324;28;20482;-59
2023/05/05 12:55:11;;;;;;;4.50;3.00;;;24.60;96.80;;;;;;5027679;28;20461;-57
2023/05/05 12:57:59;;;;;;;6.13;3.30;;;24.50;97.50;;;;;;5052110;28;20489;-60
2023/05/05 13:00:27;;;;;;;3.37;2.47;;;24.20;98.00;;;;;;5051625;28;20461;-58